MKJS/MBJ METAR and TAF weather

Enter ICAO airport designator
Station Type Date Time Source
MKJS METAR 2019/02/16 04:00 UTC NOAA

MKJS 160400Z VRB02KT 9999 FEW022 25/22 Q1014


Station Type Date Time Source
MKJS Decoded METAR 2019/02/16 04:00 UTC NOAA

Montego Bay / Sangster, Jamaica (MKJS) 18-30N 077-55W 8M
Feb 15, 2019 - 11:00 PM EST / 2019.02.16 0400 UTC
Wind: Variable at 2 MPH (2 KT):0
Visibility: greater than 7 mile(s):0
Sky conditions: mostly clear
Temperature: 77 F (25 C)
Dew Point: 71 F (22 C)
Relative Humidity: 83%
Pressure (altimeter): 29.94 in. Hg (1014 hPa)
ob: MKJS 160400Z VRB02KT 9999 FEW022 25/22 Q1014
cycle: 4

Station Type Date Time Source
MKJS TAF 2019/02/15 18:15 UTC NOAA

TAF MKJS 151715Z 1518/1618 07017KT 9999 FEW022 PROB40
TEMPO 1519/1523 7000 SHRA SCT018 BKN032
BECMG 1600/1602 13005KT FEW022
BECMG 1614/1616 07015KT


Example: see airport list